TAP033 EPWA-LOWW
Flight info
| Callsign | TAP033 |
|---|---|
| Flight time | 0h 58m |
| Altitude | 34000 |
| Route | EVINA N744 TUSIN DCT MIKOV MIKOV8W |
| Aircraft | A321/M-SDE3FGHIRWY/LB1 |
Departure
| Time | 2026-04-24 15:07 |
|---|---|
| Airport | Warsaw Chopin Airport (EPWA) |
Arrival
| Time | 2026-04-24 16:05 |
|---|---|
| Airport | Vienna International Airport (LOWW) |
| Time | Latitude | Longitude | Altitude | Speed | Heading |
|---|---|---|---|---|---|
| 2026-04-24 14:35 | 52.17377 | 20.97048 | 336 ft | 0 kts | 242° |
| 2026-04-24 14:57 | 52.17379 | 20.97054 | 339 ft | 3 kts | 242° |
| 2026-04-24 14:57 | 52.17388 | 20.97080 | 333 ft | 4 kts | 242° |
| 2026-04-24 14:57 | 52.17398 | 20.97111 | 335 ft | 4 kts | 252° |
| 2026-04-24 14:58 | 52.17397 | 20.97141 | 333 ft | 4 kts | 320° |
| 2026-04-24 14:58 | 52.17377 | 20.97161 | 335 ft | 2 kts | 332° |
| 2026-04-24 14:58 | 52.17376 | 20.97162 | 335 ft | 0 kts | 332° |
| 2026-04-24 15:01 | 52.17378 | 20.97161 | 335 ft | 2 kts | 332° |
| 2026-04-24 15:01 | 52.17436 | 20.97109 | 339 ft | 13 kts | 332° |
| 2026-04-24 15:01 | 52.17516 | 20.97040 | 333 ft | 13 kts | 332° |
| 2026-04-24 15:01 | 52.17591 | 20.96974 | 336 ft | 12 kts | 331° |
| 2026-04-24 15:02 | 52.17602 | 20.96826 | 337 ft | 17 kts | 240° |
| 2026-04-24 15:02 | 52.17542 | 20.96666 | 333 ft | 16 kts | 239° |
| 2026-04-24 15:02 | 52.17473 | 20.96573 | 335 ft | 12 kts | 172° |
| 2026-04-24 15:02 | 52.17384 | 20.96642 | 336 ft | 21 kts | 151° |
| 2026-04-24 15:03 | 52.17225 | 20.96780 | 337 ft | 31 kts | 152° |
| 2026-04-24 15:03 | 52.17020 | 20.96962 | 335 ft | 32 kts | 151° |
| 2026-04-24 15:03 | 52.16843 | 20.97113 | 336 ft | 26 kts | 152° |
| 2026-04-24 15:03 | 52.16721 | 20.97222 | 337 ft | 17 kts | 151° |
| 2026-04-24 15:04 | 52.16622 | 20.97309 | 336 ft | 16 kts | 152° |
| 2026-04-24 15:04 | 52.16559 | 20.97425 | 335 ft | 13 kts | 114° |
| 2026-04-24 15:04 | 52.16522 | 20.97556 | 335 ft | 12 kts | 115° |
| 2026-04-24 15:04 | 52.16490 | 20.97670 | 336 ft | 10 kts | 115° |
| 2026-04-24 15:05 | 52.16458 | 20.97777 | 336 ft | 13 kts | 125° |
| 2026-04-24 15:05 | 52.16379 | 20.97777 | 338 ft | 11 kts | 204° |
| 2026-04-24 15:05 | 52.16311 | 20.97723 | 336 ft | 9 kts | 217° |
| 2026-04-24 15:05 | 52.16310 | 20.97668 | 337 ft | 5 kts | 289° |
| 2026-04-24 15:06 | 52.16312 | 20.97660 | 337 ft | 0 kts | 291° |
| 2026-04-24 15:06 | 52.16320 | 20.97624 | 336 ft | 14 kts | 292° |
| 2026-04-24 15:06 | 52.16455 | 20.97140 | 335 ft | 81 kts | 295° |
| 2026-04-24 15:06 | 52.16770 | 20.96022 | 338 ft | 134 kts | 294° |
| 2026-04-24 15:07 | 52.17194 | 20.94490 | 643 ft | 152 kts | 295° |
| 2026-04-24 15:07 | 52.17594 | 20.92893 | 1270 ft | 152 kts | 292° |
| 2026-04-24 15:07 | 52.17990 | 20.91258 | 1756 ft | 161 kts | 295° |
| 2026-04-24 15:07 | 52.18414 | 20.89504 | 2168 ft | 173 kts | 280° |
| 2026-04-24 15:08 | 52.18310 | 20.87470 | 2535 ft | 190 kts | 255° |
| 2026-04-24 15:08 | 52.17852 | 20.85338 | 2776 ft | 210 kts | 254° |
| 2026-04-24 15:08 | 52.17420 | 20.82931 | 2918 ft | 234 kts | 257° |
| 2026-04-24 15:08 | 52.16993 | 20.80236 | 3320 ft | 253 kts | 258° |
| 2026-04-24 15:09 | 52.16580 | 20.77434 | 4122 ft | 257 kts | 258° |
| 2026-04-24 15:09 | 52.16179 | 20.74580 | 4958 ft | 259 kts | 259° |
| 2026-04-24 15:09 | 52.15643 | 20.71766 | 5759 ft | 264 kts | 244° |
| 2026-04-24 15:09 | 52.14472 | 20.69436 | 6551 ft | 272 kts | 220° |
| 2026-04-24 15:10 | 52.12884 | 20.67776 | 7273 ft | 277 kts | 214° |
| 2026-04-24 15:10 | 52.11197 | 20.66124 | 7983 ft | 282 kts | 213° |
| 2026-04-24 15:10 | 52.09520 | 20.64499 | 8681 ft | 286 kts | 213° |
| 2026-04-24 15:10 | 52.07792 | 20.62830 | 9364 ft | 291 kts | 213° |
| 2026-04-24 15:11 | 52.06037 | 20.61131 | 10026 ft | 296 kts | 213° |
| 2026-04-24 15:11 | 52.04218 | 20.59364 | 10267 ft | 316 kts | 213° |
| 2026-04-24 15:11 | 52.02268 | 20.57464 | 10393 ft | 337 kts | 213° |
| 2026-04-24 15:11 | 52.00220 | 20.55470 | 10756 ft | 348 kts | 213° |
| 2026-04-24 15:12 | 51.98128 | 20.53443 | 11331 ft | 352 kts | 213° |
| 2026-04-24 15:12 | 51.93876 | 20.49328 | 12552 ft | 359 kts | 213° |
| 2026-04-24 15:12 | 51.91720 | 20.47238 | 13161 ft | 363 kts | 213° |
| 2026-04-24 15:13 | 51.89545 | 20.45127 | 13756 ft | 366 kts | 213° |
| 2026-04-24 15:13 | 51.87350 | 20.43007 | 14300 ft | 369 kts | 213° |
| 2026-04-24 15:13 | 51.85130 | 20.40875 | 14845 ft | 372 kts | 213° |
| 2026-04-24 15:13 | 51.82894 | 20.38732 | 15380 ft | 375 kts | 213° |
| 2026-04-24 15:14 | 51.80645 | 20.36576 | 15911 ft | 378 kts | 213° |
| 2026-04-24 15:14 | 51.78379 | 20.34402 | 16432 ft | 380 kts | 214° |
| 2026-04-24 15:14 | 51.76093 | 20.32205 | 16934 ft | 383 kts | 214° |
| 2026-04-24 15:14 | 51.73825 | 20.30026 | 17432 ft | 386 kts | 214° |
| 2026-04-24 15:15 | 51.71508 | 20.27803 | 17928 ft | 389 kts | 214° |
| 2026-04-24 15:15 | 51.69172 | 20.25562 | 18383 ft | 392 kts | 214° |
| 2026-04-24 15:15 | 51.66817 | 20.23310 | 18808 ft | 395 kts | 214° |
| 2026-04-24 15:15 | 51.64449 | 20.21052 | 19210 ft | 397 kts | 214° |
| 2026-04-24 15:16 | 51.62061 | 20.18779 | 19624 ft | 400 kts | 214° |
| 2026-04-24 15:16 | 51.59666 | 20.16497 | 20011 ft | 402 kts | 215° |
| 2026-04-24 15:16 | 51.57250 | 20.14198 | 20385 ft | 404 kts | 215° |
| 2026-04-24 15:16 | 51.54820 | 20.11891 | 20755 ft | 407 kts | 215° |
| 2026-04-24 15:17 | 51.52377 | 20.09572 | 21127 ft | 409 kts | 215° |
| 2026-04-24 15:17 | 51.49924 | 20.07248 | 21494 ft | 411 kts | 215° |
| 2026-04-24 15:17 | 51.47449 | 20.04910 | 21859 ft | 414 kts | 215° |
| 2026-04-24 15:17 | 51.44963 | 20.02565 | 22218 ft | 416 kts | 215° |
| 2026-04-24 15:18 | 51.42458 | 20.00207 | 22590 ft | 418 kts | 215° |
| 2026-04-24 15:18 | 51.39944 | 19.97845 | 22955 ft | 421 kts | 215° |
| 2026-04-24 15:18 | 51.37413 | 19.95463 | 23331 ft | 423 kts | 216° |
| 2026-04-24 15:18 | 51.34867 | 19.93066 | 23675 ft | 425 kts | 216° |
| 2026-04-24 15:19 | 51.32306 | 19.90662 | 23974 ft | 428 kts | 216° |
| 2026-04-24 15:19 | 51.29732 | 19.88257 | 24290 ft | 430 kts | 216° |
| 2026-04-24 15:19 | 51.27146 | 19.85840 | 24599 ft | 432 kts | 216° |
| 2026-04-24 15:19 | 51.24548 | 19.83408 | 24911 ft | 434 kts | 216° |
| 2026-04-24 15:20 | 51.21971 | 19.80999 | 25221 ft | 436 kts | 216° |
| 2026-04-24 15:20 | 51.19348 | 19.78549 | 25534 ft | 438 kts | 216° |
| 2026-04-24 15:20 | 51.16711 | 19.76090 | 25838 ft | 440 kts | 216° |
| 2026-04-24 15:20 | 51.14061 | 19.73627 | 26138 ft | 442 kts | 216° |
| 2026-04-24 15:21 | 51.11392 | 19.71154 | 26441 ft | 444 kts | 216° |
| 2026-04-24 15:21 | 51.08720 | 19.68680 | 26737 ft | 446 kts | 216° |
| 2026-04-24 15:21 | 51.06029 | 19.66190 | 27025 ft | 448 kts | 216° |
| 2026-04-24 15:21 | 51.03327 | 19.63693 | 27316 ft | 450 kts | 216° |
| 2026-04-24 15:22 | 51.00611 | 19.61184 | 27604 ft | 452 kts | 216° |
| 2026-04-24 15:22 | 50.97885 | 19.58672 | 27889 ft | 454 kts | 216° |
| 2026-04-24 15:22 | 50.95143 | 19.56152 | 28171 ft | 456 kts | 216° |
| 2026-04-24 15:23 | 50.89627 | 19.51076 | 28702 ft | 460 kts | 216° |
| 2026-04-24 15:23 | 50.84064 | 19.45967 | 29242 ft | 464 kts | 216° |
| 2026-04-24 15:23 | 50.81261 | 19.43400 | 29495 ft | 466 kts | 216° |
| 2026-04-24 15:24 | 50.72819 | 19.35709 | 30158 ft | 472 kts | 216° |
| 2026-04-24 15:25 | 50.68037 | 19.31366 | 30463 ft | 475 kts | 215° |
| 2026-04-24 15:25 | 50.61370 | 19.25331 | 30969 ft | 475 kts | 215° |
| 2026-04-24 15:26 | 50.52767 | 19.17566 | 31698 ft | 475 kts | 215° |
| 2026-04-24 15:27 | 50.44162 | 19.09827 | 32424 ft | 475 kts | 215° |
| 2026-04-24 15:27 | 50.35559 | 19.02119 | 33165 ft | 475 kts | 215° |
| 2026-04-24 15:28 | 50.24125 | 18.91941 | 34005 ft | 473 kts | 215° |
| 2026-04-24 15:29 | 50.18461 | 18.86924 | 34024 ft | 466 kts | 215° |
| 2026-04-24 15:31 | 49.98742 | 18.69515 | 34024 ft | 466 kts | 214° |
| 2026-04-24 15:33 | 49.78656 | 18.45674 | 34016 ft | 451 kts | 237° |
| 2026-04-24 15:34 | 49.68710 | 18.26889 | 34012 ft | 452 kts | 236° |
| 2026-04-24 15:35 | 49.58751 | 18.08180 | 34027 ft | 453 kts | 236° |
| 2026-04-24 15:36 | 49.54741 | 18.00688 | 34021 ft | 453 kts | 236° |
| 2026-04-24 15:36 | 49.48716 | 17.89470 | 34021 ft | 454 kts | 236° |
| 2026-04-24 15:37 | 49.44657 | 17.81939 | 33922 ft | 455 kts | 236° |
| 2026-04-24 15:37 | 49.43322 | 17.79464 | 33733 ft | 454 kts | 236° |
| 2026-04-24 15:37 | 49.40647 | 17.74520 | 33369 ft | 454 kts | 236° |
| 2026-04-24 15:38 | 49.38626 | 17.70795 | 33094 ft | 454 kts | 235° |
| 2026-04-24 15:38 | 49.36608 | 17.67083 | 32573 ft | 451 kts | 235° |
| 2026-04-24 15:38 | 49.34606 | 17.63404 | 32008 ft | 448 kts | 235° |
| 2026-04-24 15:38 | 49.32616 | 17.59746 | 31451 ft | 445 kts | 235° |
| 2026-04-24 15:39 | 49.30639 | 17.56117 | 30902 ft | 442 kts | 235° |
| 2026-04-24 15:39 | 49.28675 | 17.52523 | 30364 ft | 439 kts | 234° |
| 2026-04-24 15:39 | 49.26726 | 17.48960 | 29779 ft | 436 kts | 234° |
| 2026-04-24 15:39 | 49.24790 | 17.45423 | 29246 ft | 430 kts | 234° |
| 2026-04-24 15:40 | 49.22878 | 17.41929 | 28720 ft | 425 kts | 234° |
| 2026-04-24 15:40 | 49.20992 | 17.38484 | 28206 ft | 420 kts | 234° |
| 2026-04-24 15:40 | 49.19127 | 17.35077 | 27690 ft | 415 kts | 234° |
| 2026-04-24 15:40 | 49.17281 | 17.31715 | 27202 ft | 410 kts | 234° |
| 2026-04-24 15:41 | 49.15453 | 17.28397 | 26716 ft | 405 kts | 234° |
| 2026-04-24 15:41 | 49.13652 | 17.25132 | 26246 ft | 399 kts | 234° |
| 2026-04-24 15:41 | 49.11877 | 17.21923 | 25790 ft | 393 kts | 234° |
| 2026-04-24 15:41 | 49.10130 | 17.18765 | 25355 ft | 387 kts | 234° |
| 2026-04-24 15:42 | 49.08404 | 17.15647 | 24919 ft | 382 kts | 234° |
| 2026-04-24 15:42 | 49.06703 | 17.12575 | 24489 ft | 377 kts | 234° |
| 2026-04-24 15:42 | 49.05022 | 17.09533 | 24072 ft | 373 kts | 234° |
| 2026-04-24 15:42 | 49.03357 | 17.06523 | 23642 ft | 369 kts | 233° |
| 2026-04-24 15:43 | 49.01706 | 17.03543 | 23165 ft | 366 kts | 233° |
| 2026-04-24 15:43 | 49.00077 | 17.00608 | 22739 ft | 361 kts | 233° |
| 2026-04-24 15:43 | 48.98466 | 16.97716 | 22329 ft | 356 kts | 233° |
| 2026-04-24 15:43 | 48.96869 | 16.94859 | 21907 ft | 352 kts | 233° |
| 2026-04-24 15:44 | 48.95307 | 16.92065 | 21490 ft | 350 kts | 233° |
| 2026-04-24 15:44 | 48.93733 | 16.89253 | 21070 ft | 348 kts | 233° |
| 2026-04-24 15:44 | 48.92168 | 16.86457 | 20648 ft | 346 kts | 233° |
| 2026-04-24 15:44 | 48.90610 | 16.83676 | 20224 ft | 345 kts | 233° |
| 2026-04-24 15:45 | 48.89058 | 16.80909 | 19800 ft | 343 kts | 233° |
| 2026-04-24 15:45 | 48.87512 | 16.78158 | 19382 ft | 341 kts | 233° |
| 2026-04-24 15:45 | 48.85973 | 16.75427 | 18966 ft | 340 kts | 233° |
| 2026-04-24 15:45 | 48.84441 | 16.72707 | 18551 ft | 338 kts | 233° |
| 2026-04-24 15:46 | 48.82918 | 16.69998 | 18116 ft | 337 kts | 233° |
| 2026-04-24 15:46 | 48.81351 | 16.67365 | 17690 ft | 336 kts | 225° |
| 2026-04-24 15:46 | 48.79453 | 16.65292 | 17276 ft | 338 kts | 210° |
| 2026-04-24 15:46 | 48.77257 | 16.63999 | 16886 ft | 341 kts | 195° |
| 2026-04-24 15:47 | 48.74836 | 16.63585 | 16697 ft | 361 kts | 180° |
| 2026-04-24 15:47 | 48.72327 | 16.64119 | 16460 ft | 366 kts | 168° |
| 2026-04-24 15:47 | 48.69838 | 16.64951 | 16206 ft | 367 kts | 168° |
| 2026-04-24 15:47 | 48.67347 | 16.65773 | 15969 ft | 366 kts | 168° |
| 2026-04-24 15:48 | 48.64863 | 16.66588 | 15729 ft | 365 kts | 168° |
| 2026-04-24 15:48 | 48.62384 | 16.67399 | 15483 ft | 364 kts | 169° |
| 2026-04-24 15:48 | 48.59886 | 16.67790 | 15240 ft | 360 kts | 183° |
| 2026-04-24 15:48 | 48.57416 | 16.67305 | 15004 ft | 357 kts | 197° |
| 2026-04-24 15:49 | 48.55107 | 16.66003 | 14767 ft | 352 kts | 210° |
| 2026-04-24 15:49 | 48.53071 | 16.64002 | 14528 ft | 348 kts | 221° |
| 2026-04-24 15:49 | 48.51147 | 16.61792 | 14315 ft | 347 kts | 220° |
| 2026-04-24 15:49 | 48.49190 | 16.59662 | 14074 ft | 349 kts | 213° |
| 2026-04-24 15:50 | 48.46965 | 16.58197 | 13837 ft | 352 kts | 198° |
| 2026-04-24 15:50 | 48.44538 | 16.57655 | 13593 ft | 354 kts | 182° |
| 2026-04-24 15:50 | 48.42126 | 16.58060 | 13360 ft | 355 kts | 166° |
| 2026-04-24 15:50 | 48.39752 | 16.59060 | 13127 ft | 354 kts | 165° |
| 2026-04-24 15:51 | 48.37385 | 16.60069 | 12902 ft | 353 kts | 165° |
| 2026-04-24 15:51 | 48.35020 | 16.61070 | 12674 ft | 352 kts | 165° |
| 2026-04-24 15:51 | 48.32670 | 16.62060 | 12438 ft | 350 kts | 165° |
| 2026-04-24 15:51 | 48.30323 | 16.63045 | 12157 ft | 350 kts | 165° |
| 2026-04-24 15:52 | 48.28744 | 16.63706 | 11851 ft | 348 kts | 165° |
| 2026-04-24 15:52 | 48.26424 | 16.64679 | 11444 ft | 345 kts | 165° |
| 2026-04-24 15:52 | 48.24118 | 16.65649 | 11109 ft | 343 kts | 166° |
| 2026-04-24 15:52 | 48.21821 | 16.66615 | 10794 ft | 342 kts | 166° |
| 2026-04-24 15:53 | 48.19533 | 16.67573 | 10482 ft | 341 kts | 166° |
| 2026-04-24 15:53 | 48.17253 | 16.68525 | 10177 ft | 340 kts | 166° |
| 2026-04-24 15:53 | 48.14985 | 16.69471 | 9864 ft | 336 kts | 166° |
| 2026-04-24 15:53 | 48.12762 | 16.70402 | 9517 ft | 329 kts | 166° |
| 2026-04-24 15:54 | 48.10579 | 16.71316 | 9168 ft | 323 kts | 166° |
| 2026-04-24 15:54 | 48.08995 | 16.71977 | 8922 ft | 318 kts | 166° |
| 2026-04-24 15:54 | 48.07068 | 16.72783 | 8610 ft | 314 kts | 166° |
| 2026-04-24 15:54 | 48.04983 | 16.73652 | 8303 ft | 308 kts | 166° |
| 2026-04-24 15:55 | 48.02934 | 16.74503 | 8003 ft | 304 kts | 166° |
| 2026-04-24 15:55 | 48.00898 | 16.75347 | 7694 ft | 302 kts | 167° |
| 2026-04-24 15:55 | 47.98888 | 16.76179 | 7395 ft | 297 kts | 167° |
| 2026-04-24 15:55 | 47.96916 | 16.76996 | 7090 ft | 291 kts | 167° |
| 2026-04-24 15:56 | 47.94981 | 16.77797 | 6797 ft | 286 kts | 167° |
| 2026-04-24 15:56 | 47.93076 | 16.78582 | 6498 ft | 281 kts | 167° |
| 2026-04-24 15:56 | 47.91209 | 16.79349 | 6200 ft | 276 kts | 167° |
| 2026-04-24 15:56 | 47.89379 | 16.80103 | 5899 ft | 270 kts | 167° |
| 2026-04-24 15:57 | 47.87579 | 16.80828 | 5584 ft | 265 kts | 171° |
| 2026-04-24 15:57 | 47.85789 | 16.80889 | 5305 ft | 252 kts | 194° |
| 2026-04-24 15:57 | 47.84215 | 16.79967 | 5002 ft | 238 kts | 217° |
| 2026-04-24 15:57 | 47.83057 | 16.78323 | 4699 ft | 225 kts | 239° |
| 2026-04-24 15:58 | 47.82427 | 16.76278 | 4379 ft | 213 kts | 261° |
| 2026-04-24 15:58 | 47.82336 | 16.74137 | 4085 ft | 205 kts | 280° |
| 2026-04-24 15:58 | 47.82739 | 16.72139 | 3793 ft | 200 kts | 298° |
| 2026-04-24 15:58 | 47.83558 | 16.70495 | 3483 ft | 198 kts | 316° |
| 2026-04-24 15:59 | 47.84700 | 16.69351 | 3197 ft | 200 kts | 334° |
| 2026-04-24 15:59 | 47.86024 | 16.68736 | 3007 ft | 198 kts | 341° |
| 2026-04-24 15:59 | 47.87345 | 16.68182 | 2996 ft | 197 kts | 342° |
| 2026-04-24 15:59 | 47.88663 | 16.67631 | 2998 ft | 196 kts | 342° |
| 2026-04-24 16:00 | 47.89975 | 16.67081 | 3003 ft | 195 kts | 341° |
| 2026-04-24 16:00 | 47.91268 | 16.66538 | 3006 ft | 196 kts | 341° |
| 2026-04-24 16:00 | 47.92578 | 16.65989 | 3005 ft | 195 kts | 341° |
| 2026-04-24 16:00 | 47.93879 | 16.65444 | 3007 ft | 188 kts | 341° |
| 2026-04-24 16:01 | 47.95071 | 16.64946 | 3010 ft | 168 kts | 341° |
| 2026-04-24 16:01 | 47.96146 | 16.64494 | 3005 ft | 155 kts | 341° |
| 2026-04-24 16:01 | 47.97149 | 16.64072 | 2928 ft | 146 kts | 341° |
| 2026-04-24 16:01 | 47.98115 | 16.63665 | 2779 ft | 142 kts | 341° |
| 2026-04-24 16:02 | 47.99066 | 16.63264 | 2600 ft | 141 kts | 341° |
| 2026-04-24 16:02 | 48.00012 | 16.62866 | 2425 ft | 141 kts | 342° |
| 2026-04-24 16:02 | 48.00950 | 16.62470 | 2240 ft | 139 kts | 340° |
| 2026-04-24 16:02 | 48.01882 | 16.62055 | 2070 ft | 139 kts | 340° |
| 2026-04-24 16:03 | 48.02821 | 16.61654 | 1875 ft | 140 kts | 341° |
| 2026-04-24 16:03 | 48.03769 | 16.61276 | 1696 ft | 140 kts | 342° |
| 2026-04-24 16:03 | 48.04709 | 16.60915 | 1547 ft | 139 kts | 342° |
| 2026-04-24 16:03 | 48.05644 | 16.60522 | 1362 ft | 140 kts | 339° |
| 2026-04-24 16:04 | 48.06565 | 16.60106 | 1152 ft | 138 kts | 338° |
| 2026-04-24 16:04 | 48.07490 | 16.59717 | 924 ft | 137 kts | 339° |
| 2026-04-24 16:04 | 48.08407 | 16.59335 | 754 ft | 137 kts | 338° |
| 2026-04-24 16:04 | 48.09321 | 16.58949 | 626 ft | 136 kts | 340° |
| 2026-04-24 16:05 | 48.10471 | 16.58452 | 610 ft | 35 kts | 344° |
| 2026-04-24 16:05 | 48.10691 | 16.58356 | 616 ft | 31 kts | 344° |
| 2026-04-24 16:06 | 48.10978 | 16.58197 | 618 ft | 15 kts | 319° |
| 2026-04-24 16:06 | 48.11036 | 16.58081 | 617 ft | 14 kts | 298° |
| 2026-04-24 16:06 | 48.11123 | 16.57823 | 615 ft | 14 kts | 295° |
| 2026-04-24 16:07 | 48.11166 | 16.57690 | 616 ft | 14 kts | 296° |
| 2026-04-24 16:07 | 48.11211 | 16.57549 | 615 ft | 18 kts | 296° |
| 2026-04-24 16:07 | 48.11357 | 16.57099 | 625 ft | 25 kts | 296° |
| 2026-04-24 16:08 | 48.11433 | 16.56868 | 619 ft | 25 kts | 296° |
| 2026-04-24 16:08 | 48.11584 | 16.56402 | 616 ft | 24 kts | 296° |
| 2026-04-24 16:09 | 48.11722 | 16.55984 | 620 ft | 18 kts | 295° |
| 2026-04-24 16:09 | 48.11763 | 16.55860 | 623 ft | 9 kts | 302° |
| 2026-04-24 16:09 | 48.11815 | 16.55846 | 610 ft | 9 kts | 19° |
| 2026-04-24 16:09 | 48.11859 | 16.55875 | 612 ft | 6 kts | 25° |
| 2026-04-24 16:10 | 48.11920 | 16.55853 | 621 ft | 3 kts | 296° |
| 2026-04-24 16:11 | 48.11932 | 16.55817 | 617 ft | 0 kts | 296° |
| 2026-04-24 16:11 | 48.11934 | 16.55811 | 624 ft | 1 kts | 296° |
| 2026-04-24 16:11 | 48.11936 | 16.55805 | 622 ft | 0 kts | 296° |